sensor_id;sensor_type;location;lat;lon;timestamp;pressure;altitude;pressure_sealevel;temperature;humidity
25130;BME280;13308;50.860;13.664;2023-04-10T04:52:22;97586.19;;;4.36;100.00
25130;BME280;13308;50.860;13.664;2023-04-10T04:55:04;97590.84;;;4.35;100.00
25130;BME280;13308;50.860;13.664;2023-04-10T04:57:35;97582.16;;;4.30;100.00
25130;BME280;13308;50.860;13.664;2023-04-10T05:00:15;97584.44;;;4.28;100.00
25130;BME280;13308;50.860;13.664;2023-04-10T05:03:03;97588.78;;;4.29;100.00
25130;BME280;13308;50.860;13.664;2023-04-10T05:05:38;97586.75;;;4.26;100.00
25130;BME280;13308;50.860;13.664;2023-04-10T05:08:15;97587.63;;;4.30;100.00
25130;BME280;13308;50.860;13.664;2023-04-10T05:10:59;97591.50;;;4.29;100.00
25130;BME280;13308;50.860;13.664;2023-04-10T05:13:50;97594.78;;;4.38;100.00
25130;BME280;13308;50.860;13.664;2023-04-10T05:16:21;97583.44;;;4.36;100.00
25130;BME280;13308;50.860;13.664;2023-04-10T05:18:54;97585.91;;;4.41;100.00
25130;BME280;13308;50.860;13.664;2023-04-10T05:21:39;97586.31;;;4.43;100.00
25130;BME280;13308;50.860;13.664;2023-04-10T05:24:25;97580.28;;;4.53;100.00
25130;BME280;13308;50.860;13.664;2023-04-10T05:27:09;97585.88;;;4.60;100.00
25130;BME280;13308;50.860;13.664;2023-04-10T05:29:53;97588.09;;;4.73;100.00
25130;BME280;13308;50.860;13.664;2023-04-10T05:32:36;97584.75;;;4.83;100.00
25130;BME280;13308;50.860;13.664;2023-04-10T05:35:25;97596.34;;;4.96;100.00
25130;BME280;13308;50.860;13.664;2023-04-10T05:37:55;97587.44;;;5.02;100.00
25130;BME280;13308;50.860;13.664;2023-04-10T05:40:29;97588.44;;;5.13;100.00
25130;BME280;13308;50.860;13.664;2023-04-10T05:43:08;97596.41;;;5.22;100.00
25130;BME280;13308;50.860;13.664;2023-04-10T05:45:54;97591.00;;;5.25;100.00
25130;BME280;13308;50.860;13.664;2023-04-10T05:48:38;97591.31;;;5.43;100.00
25130;BME280;13308;50.860;13.664;2023-04-10T05:51:17;97588.69;;;5.50;100.00
25130;BME280;13308;50.860;13.664;2023-04-10T05:54:01;97587.22;;;5.56;100.00
25130;BME280;13308;50.860;13.664;2023-04-10T05:56:41;97586.91;;;5.61;100.00
25130;BME280;13308;50.860;13.664;2023-04-10T05:59:26;97594.22;;;5.79;100.00
25130;BME280;13308;50.860;13.664;2023-04-10T06:02:14;97588.03;;;5.82;100.00
25130;BME280;13308;50.860;13.664;2023-04-10T06:04:40;97591.16;;;5.81;100.00
25130;BME280;13308;50.860;13.664;2023-04-10T06:07:05;97595.03;;;5.80;100.00
25130;BME280;13308;50.860;13.664;2023-04-10T06:09:31;97591.56;;;5.83;100.00
25130;BME280;13308;50.860;13.664;2023-04-10T06:11:59;97593.56;;;5.86;100.00
25130;BME280;13308;50.860;13.664;2023-04-10T06:14:25;97589.78;;;5.94;100.00
25130;BME280;13308;50.860;13.664;2023-04-10T06:16:50;97587.47;;;5.96;100.00
25130;BME280;13308;50.860;13.664;2023-04-10T06:19:16;97583.75;;;6.11;100.00
25130;BME280;13308;50.860;13.664;2023-04-10T06:21:41;97584.78;;;6.29;100.00
25130;BME280;13308;50.860;13.664;2023-04-10T06:24:07;97589.66;;;6.42;100.00
25130;BME280;13308;50.860;13.664;2023-04-10T06:26:32;97575.94;;;6.75;100.00
25130;BME280;13308;50.860;13.664;2023-04-10T06:28:58;97585.22;;;6.97;100.00
25130;BME280;13308;50.860;13.664;2023-04-10T06:31:23;97592.91;;;7.21;100.00
25130;BME280;13308;50.860;13.664;2023-04-10T06:33:49;97583.16;;;7.27;100.00
25130;BME280;13308;50.860;13.664;2023-04-10T06:36:16;97582.09;;;7.42;100.00
25130;BME280;13308;50.860;13.664;2023-04-10T06:38:46;97592.09;;;7.60;100.00
25130;BME280;13308;50.860;13.664;2023-04-10T06:41:12;97585.81;;;7.63;100.00
25130;BME280;13308;50.860;13.664;2023-04-10T06:43:38;97576.72;;;7.56;100.00
25130;BME280;13308;50.860;13.664;2023-04-10T06:46:03;97583.09;;;7.67;100.00
25130;BME280;13308;50.860;13.664;2023-04-10T06:48:30;97577.59;;;7.67;100.00
25130;BME280;13308;50.860;13.664;2023-04-10T06:50:55;97583.97;;;7.78;100.00
25130;BME280;13308;50.860;13.664;2023-04-10T06:53:20;97592.06;;;8.14;100.00
25130;BME280;13308;50.860;13.664;2023-04-10T06:55:46;97593.16;;;8.70;100.00
25130;BME280;13308;50.860;13.664;2023-04-10T06:58:11;97586.97;;;8.94;100.00
25130;BME280;13308;50.860;13.664;2023-04-10T07:00:37;97581.94;;;9.28;100.00
25130;BME280;13308;50.860;13.664;2023-04-10T07:03:02;97582.34;;;9.75;97.94
25130;BME280;13308;50.860;13.664;2023-04-10T07:05:28;97591.78;;;10.27;92.01
25130;BME280;13308;50.860;13.664;2023-04-10T07:07:53;97592.41;;;10.69;89.96
25130;BME280;13308;50.860;13.664;2023-04-10T07:10:18;97588.00;;;10.82;89.09
25130;BME280;13308;50.860;13.664;2023-04-10T07:12:43;97590.78;;;10.82;91.37
25130;BME280;13308;50.860;13.664;2023-04-10T07:15:09;97595.28;;;11.27;89.25
25130;BME280;13308;50.860;13.664;2023-04-10T07:17:36;97592.69;;;11.64;88.05
25130;BME280;13308;50.860;13.664;2023-04-10T07:20:02;97592.44;;;12.70;87.25
25130;BME280;13308;50.860;13.664;2023-04-10T07:22:27;97598.03;;;13.03;82.03
25130;BME280;13308;50.860;13.664;2023-04-10T07:24:52;97596.22;;;12.86;81.75
25130;BME280;13308;50.860;13.664;2023-04-10T07:27:18;97590.25;;;12.54;83.11
25130;BME280;13308;50.860;13.664;2023-04-10T07:29:44;97593.03;;;12.54;82.68
25130;BME280;13308;50.860;13.664;2023-04-10T07:32:10;97586.69;;;13.21;79.04
25130;BME280;13308;50.860;13.664;2023-04-10T07:34:36;97584.44;;;13.65;76.72
25130;BME280;13308;50.860;13.664;2023-04-10T07:37:01;97580.44;;;14.16;72.79
25130;BME280;13308;50.860;13.664;2023-04-10T07:39:27;97583.00;;;15.47;71.50
25130;BME280;13308;50.860;13.664;2023-04-10T07:41:52;97586.41;;;16.34;64.55
25130;BME280;13308;50.860;13.664;2023-04-10T07:44:18;97585.25;;;16.64;60.49
25130;BME280;13308;50.860;13.664;2023-04-10T07:46:44;97589.75;;;17.68;57.49
25130;BME280;13308;50.860;13.664;2023-04-10T07:49:09;97587.69;;;18.31;56.34
25130;BME280;13308;50.860;13.664;2023-04-10T07:51:34;97595.84;;;19.15;56.38
25130;BME280;13308;50.860;13.664;2023-04-10T07:54:04;97588.31;;;19.46;53.80
25130;BME280;13308;50.860;13.664;2023-04-10T07:56:29;97585.50;;;20.16;53.96
25130;BME280;13308;50.860;13.664;2023-04-10T07:59:01;97581.78;;;20.28;51.26
25130;BME280;13308;50.860;13.664;2023-04-10T08:01:27;97577.75;;;19.80;50.46
25130;BME280;13308;50.860;13.664;2023-04-10T08:03:52;97576.84;;;19.53;51.52
25130;BME280;13308;50.860;13.664;2023-04-10T08:06:19;97566.31;;;17.66;55.55
25130;BME280;13308;50.860;13.664;2023-04-10T08:08:44;97571.38;;;17.30;55.31
25130;BME280;13308;50.860;13.664;2023-04-10T08:11:27;97556.34;;;16.86;54.98
25130;BME280;13308;50.860;13.664;2023-04-10T08:13:54;97560.47;;;16.94;54.03
25130;BME280;13308;50.860;13.664;2023-04-10T08:16:25;97554.72;;;16.28;57.81
25130;BME280;13308;50.860;13.664;2023-04-10T08:18:51;97566.16;;;16.18;56.87
25130;BME280;13308;50.860;13.664;2023-04-10T08:21:17;97557.56;;;15.96;57.69
25130;BME280;13308;50.860;13.664;2023-04-10T08:23:43;97551.72;;;15.59;59.61
25130;BME280;13308;50.860;13.664;2023-04-10T08:26:10;97549.75;;;15.59;56.06
25130;BME280;13308;50.860;13.664;2023-04-10T08:28:35;97552.53;;;15.91;56.90
25130;BME280;13308;50.860;13.664;2023-04-10T08:31:01;97544.97;;;15.76;58.53
25130;BME280;13308;50.860;13.664;2023-04-10T08:33:27;97554.00;;;15.64;58.56
25130;BME280;13308;50.860;13.664;2023-04-10T08:35:52;97558.25;;;15.68;58.16
25130;BME280;13308;50.860;13.664;2023-04-10T08:38:17;97551.38;;;15.57;58.65
25130;BME280;13308;50.860;13.664;2023-04-10T08:40:45;97553.78;;;15.39;61.57
25130;BME280;13308;50.860;13.664;2023-04-10T08:43:10;97547.38;;;15.22;60.77
25130;BME280;13308;50.860;13.664;2023-04-10T08:45:36;97545.44;;;14.84;59.32
25130;BME280;13308;50.860;13.664;2023-04-10T08:48:04;97540.59;;;14.88;60.68
25130;BME280;13308;50.860;13.664;2023-04-10T08:50:32;97547.59;;;14.57;60.24
25130;BME280;13308;50.860;13.664;2023-04-10T08:52:59;97540.44;;;14.36;59.83
25130;BME280;13308;50.860;13.664;2023-04-10T08:55:29;97537.56;;;13.97;61.03
25130;BME280;13308;50.860;13.664;2023-04-10T08:57:55;97539.19;;;14.80;62.81
25130;BME280;13308;50.860;13.664;2023-04-10T09:00:21;97532.75;;;15.02;61.01
25130;BME280;13308;50.860;13.664;2023-04-10T09:02:46;97530.69;;;15.06;62.27
25130;BME280;13308;50.860;13.664;2023-04-10T09:05:12;97533.31;;;15.81;57.38
25130;BME280;13308;50.860;13.664;2023-04-10T09:07:37;97527.03;;;15.61;56.49
25130;BME280;13308;50.860;13.664;2023-04-10T09:10:04;97535.72;;;15.95;55.32
25130;BME280;13308;50.860;13.664;2023-04-10T09:12:42;97526.69;;;15.59;57.35
25130;BME280;13308;50.860;13.664;2023-04-10T09:15:08;97526.09;;;15.35;54.71
25130;BME280;13308;50.860;13.664;2023-04-10T09:17:33;97534.25;;;15.90;54.76
25130;BME280;13308;50.860;13.664;2023-04-10T09:19:58;97530.06;;;15.98;53.76
25130;BME280;13308;50.860;13.664;2023-04-10T09:22:32;97528.94;;;15.80;55.96
25130;BME280;13308;50.860;13.664;2023-04-10T09:24:58;97524.53;;;15.31;55.33
25130;BME280;13308;50.860;13.664;2023-04-10T09:27:31;97523.41;;;15.28;55.63
25130;BME280;13308;50.860;13.664;2023-04-10T09:29:58;97516.97;;;14.60;56.96
25130;BME280;13308;50.860;13.664;2023-04-10T09:32:40;97519.56;;;15.74;57.05
25130;BME280;13308;50.860;13.664;2023-04-10T09:35:07;97524.63;;;16.23;57.42
25130;BME280;13308;50.860;13.664;2023-04-10T09:37:33;97521.28;;;17.14;55.85
25130;BME280;13308;50.860;13.664;2023-04-10T09:39:59;97526.13;;;17.38;50.94
25130;BME280;13308;50.860;13.664;2023-04-10T09:42:33;97523.19;;;17.79;49.89
25130;BME280;13308;50.860;13.664;2023-04-10T09:44:59;97525.41;;;17.84;48.36
25130;BME280;13308;50.860;13.664;2023-04-10T09:47:26;97513.06;;;18.19;48.89
25130;BME280;13308;50.860;13.664;2023-04-10T09:49:53;97520.50;;;17.88;48.56
25130;BME280;13308;50.860;13.664;2023-04-10T09:52:30;97522.44;;;17.54;51.09
25130;BME280;13308;50.860;13.664;2023-04-10T09:54:59;97508.81;;;16.77;49.66
25130;BME280;13308;50.860;13.664;2023-04-10T09:57:26;97504.41;;;16.92;52.14
25130;BME280;13308;50.860;13.664;2023-04-10T09:59:57;97501.28;;;16.90;52.09
25130;BME280;13308;50.860;13.664;2023-04-10T10:02:24;97492.03;;;16.93;53.22
25130;BME280;13308;50.860;13.664;2023-04-10T10:04:51;97499.22;;;17.69;52.85
25130;BME280;13308;50.860;13.664;2023-04-10T10:07:18;97485.53;;;18.30;50.92
25130;BME280;13308;50.860;13.664;2023-04-10T10:09:46;97481.13;;;19.27;52.96
25130;BME280;13308;50.860;13.664;2023-04-10T10:12:15;97485.50;;;19.38;52.56
25130;BME280;13308;50.860;13.664;2023-04-10T10:14:49;97482.25;;;19.08;48.89
25130;BME280;13308;50.860;13.664;2023-04-10T10:17:20;97487.91;;;19.57;51.17
25130;BME280;13308;50.860;13.664;2023-04-10T10:20:03;97477.69;;;19.72;47.81
25130;BME280;13308;50.860;13.664;2023-04-10T10:22:31;97475.94;;;18.74;46.15
25130;BME280;13308;50.860;13.664;2023-04-10T10:24:57;97470.31;;;17.63;47.51
25130;BME280;13308;50.860;13.664;2023-04-10T10:27:25;97468.84;;;17.09;51.80
25130;BME280;13308;50.860;13.664;2023-04-10T10:29:53;97461.88;;;16.63;51.24
25130;BME280;13308;50.860;13.664;2023-04-10T10:32:20;97452.63;;;16.54;50.62
25130;BME280;13308;50.860;13.664;2023-04-10T10:34:46;97451.91;;;17.03;50.18
25130;BME280;13308;50.860;13.664;2023-04-10T10:37:12;97445.28;;;17.72;50.60
25130;BME280;13308;50.860;13.664;2023-04-10T10:40:06;97458.03;;;18.41;49.36
25130;BME280;13308;50.860;13.664;2023-04-10T10:42:45;97448.41;;;18.08;46.17
25130;BME280;13308;50.860;13.664;2023-04-10T10:45:17;97440.00;;;18.33;45.81
25130;BME280;13308;50.860;13.664;2023-04-10T10:48:01;97447.94;;;18.22;46.25
25130;BME280;13308;50.860;13.664;2023-04-10T10:50:56;97441.94;;;17.77;46.39
25130;BME280;13308;50.860;13.664;2023-04-10T10:53:41;97438.88;;;17.50;47.70
25130;BME280;13308;50.860;13.664;2023-04-10T10:58:48;97431.16;;;16.92;46.80
25130;BME280;13308;50.860;13.664;2023-04-10T11:01:14;97432.72;;;16.80;47.48
25130;BME280;13308;50.860;13.664;2023-04-10T11:03:40;97419.34;;;17.00;47.05
25130;BME280;13308;50.860;13.664;2023-04-10T11:06:10;97419.91;;;16.83;45.39
25130;BME280;13308;50.860;13.664;2023-04-10T11:08:41;97419.75;;;17.61;45.18
25130;BME280;13308;50.860;13.664;2023-04-10T11:11:16;97418.19;;;17.60;45.78
25130;BME280;13308;50.860;13.664;2023-04-10T11:19:18;97410.00;;;17.78;44.71
25130;BME280;13308;50.860;13.664;2023-04-10T11:22:06;97414.81;;;17.78;44.21
25130;BME280;13308;50.860;13.664;2023-04-10T11:24:53;97405.50;;;17.22;46.58
25130;BME280;13308;50.860;13.664;2023-04-10T11:27:40;97395.03;;;17.13;45.60
25130;BME280;13308;50.860;13.664;2023-04-10T11:32:51;97387.91;;;16.87;44.71
25130;BME280;13308;50.860;13.664;2023-04-10T11:35:20;97392.03;;;17.08;44.59
25130;BME280;13308;50.860;13.664;2023-04-10T11:37:45;97399.41;;;17.14;42.86
25130;BME280;13308;50.860;13.664;2023-04-10T11:40:11;97377.09;;;17.39;44.78
25130;BME280;13308;50.860;13.664;2023-04-10T11:42:37;97371.03;;;17.28;44.72
25130;BME280;13308;50.860;13.664;2023-04-10T11:45:22;97370.75;;;16.89;44.64
25130;BME280;13308;50.860;13.664;2023-04-10T11:47:51;97379.66;;;17.80;45.12
25130;BME280;13308;50.860;13.664;2023-04-10T11:50:17;97367.31;;;17.90;44.60
25130;BME280;13308;50.860;13.664;2023-04-10T11:52:43;97375.41;;;18.31;42.42
25130;BME280;13308;50.860;13.664;2023-04-10T11:55:08;97373.03;;;18.30;44.03
25130;BME280;13308;50.860;13.664;2023-04-10T11:57:34;97368.00;;;18.37;43.03
25130;BME280;13308;50.860;13.664;2023-04-10T12:00:00;97364.78;;;18.26;40.83
25130;BME280;13308;50.860;13.664;2023-04-10T12:02:25;97352.94;;;17.79;43.74
25130;BME280;13308;50.860;13.664;2023-04-10T12:04:57;97352.78;;;17.61;43.75
25130;BME280;13308;50.860;13.664;2023-04-10T12:07:23;97344.16;;;17.34;43.02
25130;BME280;13308;50.860;13.664;2023-04-10T12:09:55;97348.31;;;17.17;42.63
25130;BME280;13308;50.860;13.664;2023-04-10T12:12:33;97347.16;;;17.52;43.22
25130;BME280;13308;50.860;13.664;2023-04-10T12:14:59;97347.81;;;17.56;43.12
25130;BME280;13308;50.860;13.664;2023-04-10T12:17:24;97344.25;;;17.77;42.12
25130;BME280;13308;50.860;13.664;2023-04-10T12:19:49;97353.81;;;18.53;42.58
25130;BME280;13308;50.860;13.664;2023-04-10T12:22:15;97349.66;;;18.97;40.25
25130;BME280;13308;50.860;13.664;2023-04-10T12:24:51;97350.59;;;19.03;38.73
25130;BME280;13308;50.860;13.664;2023-04-10T12:27:25;97347.03;;;18.63;40.12
25130;BME280;13308;50.860;13.664;2023-04-10T12:29:55;97349.50;;;19.00;42.15
25130;BME280;13308;50.860;13.664;2023-04-10T12:32:20;97350.34;;;19.19;41.37
25130;BME280;13308;50.860;13.664;2023-04-10T12:34:50;97340.38;;;19.09;43.00
25130;BME280;13308;50.860;13.664;2023-04-10T12:37:16;97348.78;;;18.39;42.44
25130;BME280;13308;50.860;13.664;2023-04-10T12:39:41;97332.34;;;17.98;43.50
25130;BME280;13308;50.860;13.664;2023-04-10T12:44:49;97336.47;;;19.64;44.60
25130;BME280;13308;50.860;13.664;2023-04-10T12:47:14;97336.00;;;18.99;41.04
25130;BME280;13308;50.860;13.664;2023-04-10T12:49:40;97344.19;;;18.54;41.95
25130;BME280;13308;50.860;13.664;2023-04-10T12:52:05;97335.66;;;18.88;39.48
25130;BME280;13308;50.860;13.664;2023-04-10T12:54:32;97320.38;;;18.71;42.63
25130;BME280;13308;50.860;13.664;2023-04-10T12:56:58;97321.34;;;18.25;42.50
25130;BME280;13308;50.860;13.664;2023-04-10T12:59:24;97312.53;;;18.05;43.68
25130;BME280;13308;50.860;13.664;2023-04-10T13:01:51;97310.16;;;18.25;42.68
25130;BME280;13308;50.860;13.664;2023-04-10T13:04:16;97307.34;;;18.16;43.12
25130;BME280;13308;50.860;13.664;2023-04-10T13:06:46;97313.47;;;17.47;43.42
25130;BME280;13308;50.860;13.664;2023-04-10T13:09:12;97297.75;;;16.81;44.69
25130;BME280;13308;50.860;13.664;2023-04-10T13:11:38;97306.94;;;17.62;44.19
25130;BME280;13308;50.860;13.664;2023-04-10T13:14:04;97304.31;;;18.93;42.28
25130;BME280;13308;50.860;13.664;2023-04-10T13:16:29;97314.25;;;19.96;39.30
25130;BME280;13308;50.860;13.664;2023-04-10T13:18:55;97305.19;;;19.83;36.92
25130;BME280;13308;50.860;13.664;2023-04-10T13:21:20;97303.00;;;19.33;37.08
25130;BME280;13308;50.860;13.664;2023-04-10T13:23:50;97303.00;;;18.85;38.54
25130;BME280;13308;50.860;13.664;2023-04-10T13:26:15;97287.88;;;18.65;39.59
25130;BME280;13308;50.860;13.664;2023-04-10T13:28:40;97281.63;;;17.78;40.15
25130;BME280;13308;50.860;13.664;2023-04-10T13:31:06;97277.28;;;18.51;38.72
25130;BME280;13308;50.860;13.664;2023-04-10T13:33:31;97277.13;;;18.54;37.88
25130;BME280;13308;50.860;13.664;2023-04-10T13:35:56;97280.13;;;19.17;37.97
25130;BME280;13308;50.860;13.664;2023-04-10T13:38:22;97267.75;;;18.18;39.91
25130;BME280;13308;50.860;13.664;2023-04-10T13:40:47;97256.91;;;18.41;40.12
25130;BME280;13308;50.860;13.664;2023-04-10T13:43:12;97253.34;;;17.89;40.96
25130;BME280;13308;50.860;13.664;2023-04-10T13:45:38;97242.47;;;17.26;41.23
25130;BME280;13308;50.860;13.664;2023-04-10T13:48:03;97244.75;;;17.83;39.43
25130;BME280;13308;50.860;13.664;2023-04-10T13:50:31;97250.28;;;19.05;37.75
25130;BME280;13308;50.860;13.664;2023-04-10T13:52:56;97249.22;;;18.02;38.63
25130;BME280;13308;50.860;13.664;2023-04-10T13:55:22;97235.09;;;18.27;38.70
25130;BME280;13308;50.860;13.664;2023-04-10T13:57:47;97242.94;;;18.90;38.80
25130;BME280;13308;50.860;13.664;2023-04-10T14:00:13;97231.31;;;19.09;38.36
25130;BME280;13308;50.860;13.664;2023-04-10T14:02:38;97236.41;;;20.18;36.61
25130;BME280;13308;50.860;13.664;2023-04-10T14:05:03;97221.50;;;20.45;36.67
25130;BME280;13308;50.860;13.664;2023-04-10T14:07:29;97221.63;;;20.92;36.69
25130;BME280;13308;50.860;13.664;2023-04-10T14:09:54;97227.09;;;20.54;36.38
25130;BME280;13308;50.860;13.664;2023-04-10T14:12:19;97215.28;;;20.73;37.10
25130;BME280;13308;50.860;13.664;2023-04-10T14:14:47;97206.41;;;22.27;37.78
25130;BME280;13308;50.860;13.664;2023-04-10T14:17:12;97215.78;;;22.09;36.43
25130;BME280;13308;50.860;13.664;2023-04-10T14:19:37;97218.44;;;21.84;35.14
25130;BME280;13308;50.860;13.664;2023-04-10T14:22:03;97211.13;;;19.77;36.81
25130;BME280;13308;50.860;13.664;2023-04-10T14:24:29;97211.75;;;19.72;36.32
25130;BME280;13308;50.860;13.664;2023-04-10T14:26:54;97206.16;;;19.18;37.62
25130;BME280;13308;50.860;13.664;2023-04-10T14:29:23;97212.06;;;19.20;39.20
25130;BME280;13308;50.860;13.664;2023-04-10T14:31:48;97203.34;;;19.00;37.73
25130;BME280;13308;50.860;13.664;2023-04-10T14:34:16;97198.69;;;19.06;37.31
25130;BME280;13308;50.860;13.664;2023-04-10T14:36:41;97193.72;;;19.19;36.50
25130;BME280;13308;50.860;13.664;2023-04-10T14:39:06;97198.69;;;19.51;36.83
25130;BME280;13308;50.860;13.664;2023-04-10T14:41:32;97194.69;;;19.52;36.84
25130;BME280;13308;50.860;13.664;2023-04-10T14:43:57;97186.22;;;17.92;39.57
25130;BME280;13308;50.860;13.664;2023-04-10T14:46:22;97177.16;;;17.36;40.19
25130;BME280;13308;50.860;13.664;2023-04-10T14:48:49;97180.41;;;17.35;40.00
25130;BME280;13308;50.860;13.664;2023-04-10T14:51:15;97160.66;;;17.72;40.16
25130;BME280;13308;50.860;13.664;2023-04-10T14:53:40;97175.25;;;19.30;37.68
25130;BME280;13308;50.860;13.664;2023-04-10T14:56:12;97185.31;;;18.92;38.50
25130;BME280;13308;50.860;13.664;2023-04-10T14:58:38;97157.00;;;18.24;39.89
25130;BME280;13308;50.860;13.664;2023-04-10T15:01:07;97163.56;;;18.69;39.14
25130;BME280;13308;50.860;13.664;2023-04-10T15:03:33;97157.41;;;19.28;37.86
25130;BME280;13308;50.860;13.664;2023-04-10T15:05:59;97159.03;;;19.79;37.67
25130;BME280;13308;50.860;13.664;2023-04-10T15:08:24;97155.19;;;19.14;38.31
25130;BME280;13308;50.860;13.664;2023-04-10T15:10:50;97144.88;;;18.48;38.98
25130;BME280;13308;50.860;13.664;2023-04-10T15:13:17;97145.94;;;18.42;39.61
25130;BME280;13308;50.860;13.664;2023-04-10T15:15:43;97134.94;;;18.56;39.70
25130;BME280;13308;50.860;13.664;2023-04-10T15:18:09;97135.63;;;19.41;38.67
25130;BME280;13308;50.860;13.664;2023-04-10T15:20:34;97116.66;;;18.91;39.15
25130;BME280;13308;50.860;13.664;2023-04-10T15:23:00;97116.03;;;19.32;39.03
25130;BME280;13308;50.860;13.664;2023-04-10T15:25:26;97115.13;;;20.27;37.54
25130;BME280;13308;50.860;13.664;2023-04-10T15:27:54;97108.41;;;19.92;37.04
25130;BME280;13308;50.860;13.664;2023-04-10T15:30:19;97107.00;;;18.74;38.54
25130;BME280;13308;50.860;13.664;2023-04-10T15:32:44;97098.63;;;18.92;38.92
25130;BME280;13308;50.860;13.664;2023-04-10T15:35:10;97106.22;;;18.38;39.16
25130;BME280;13308;50.860;13.664;2023-04-10T15:37:35;97099.47;;;18.17;39.56
25130;BME280;13308;50.860;13.664;2023-04-10T15:40:02;97087.28;;;17.93;39.56
25130;BME280;13308;50.860;13.664;2023-04-10T15:42:28;97084.75;;;17.77;40.62
25130;BME280;13308;50.860;13.664;2023-04-10T15:44:54;97075.38;;;16.67;42.25
25130;BME280;13308;50.860;13.664;2023-04-10T15:47:19;97073.38;;;16.09;42.80
25130;BME280;13308;50.860;13.664;2023-04-10T15:49:44;97071.75;;;15.86;43.63
25130;BME280;13308;50.860;13.664;2023-04-10T15:52:10;97064.91;;;16.25;43.03
25130;BME280;13308;50.860;13.664;2023-04-10T15:54:37;97074.91;;;16.22;43.42
25130;BME280;13308;50.860;13.664;2023-04-10T15:57:02;97069.66;;;16.24;43.09
25130;BME280;13308;50.860;13.664;2023-04-10T15:59:28;97060.81;;;16.17;43.23
25130;BME280;13308;50.860;13.664;2023-04-10T16:01:53;97055.81;;;15.99;43.83
25130;BME280;13308;50.860;13.664;2023-04-10T16:04:18;97053.97;;;16.43;43.91
25130;BME280;13308;50.860;13.664;2023-04-10T16:06:44;97050.47;;;16.51;43.32
25130;BME280;13308;50.860;13.664;2023-04-10T16:09:09;97051.63;;;16.41;43.55
25130;BME280;13308;50.860;13.664;2023-04-10T16:11:36;97049.38;;;16.36;44.30
25130;BME280;13308;50.860;13.664;2023-04-10T16:14:02;97035.09;;;16.00;44.26
25130;BME280;13308;50.860;13.664;2023-04-10T16:16:27;97041.94;;;15.74;44.29
25130;BME280;13308;50.860;13.664;2023-04-10T16:18:53;97042.75;;;16.21;43.61
25130;BME280;13308;50.860;13.664;2023-04-10T16:21:19;97038.00;;;15.97;44.30
25130;BME280;13308;50.860;13.664;2023-04-10T16:23:45;97035.38;;;15.81;44.42
25130;BME280;13308;50.860;13.664;2023-04-10T16:26:11;97031.25;;;15.85;44.57
25130;BME280;13308;50.860;13.664;2023-04-10T16:28:36;97023.06;;;15.44;44.86
25130;BME280;13308;50.860;13.664;2023-04-10T16:31:01;97022.50;;;15.49;45.22
25130;BME280;13308;50.860;13.664;2023-04-10T16:33:27;97021.16;;;14.75;46.50
25130;BME280;13308;50.860;13.664;2023-04-10T16:35:53;97009.06;;;14.82;46.47
25130;BME280;13308;50.860;13.664;2023-04-10T16:38:21;97018.78;;;14.61;47.31
25130;BME280;13308;50.860;13.664;2023-04-10T16:40:46;97018.19;;;14.41;47.94
25130;BME280;13308;50.860;13.664;2023-04-10T16:43:12;97013.78;;;14.28;48.15
25130;BME280;13308;50.860;13.664;2023-04-10T16:45:37;97014.03;;;14.33;47.87
25130;BME280;13308;50.860;13.664;2023-04-10T16:48:02;97007.41;;;14.43;47.95
25130;BME280;13308;50.860;13.664;2023-04-10T16:50:28;97004.00;;;14.23;48.21
25130;BME280;13308;50.860;13.664;2023-04-10T16:52:53;96992.63;;;14.18;48.97
25130;BME280;13308;50.860;13.664;2023-04-10T16:55:18;96996.25;;;13.70;49.21
25130;BME280;13308;50.860;13.664;2023-04-10T16:57:44;96996.22;;;13.86;48.90
25130;BME280;13308;50.860;13.664;2023-04-10T17:00:10;96989.63;;;13.96;48.65
25130;BME280;13308;50.860;13.664;2023-04-10T17:02:36;96988.41;;;13.97;48.47
25130;BME280;13308;50.860;13.664;2023-04-10T17:05:01;96988.97;;;13.76;49.49
25130;BME280;13308;50.860;13.664;2023-04-10T17:07:26;96977.09;;;13.76;48.97
25130;BME280;13308;50.860;13.664;2023-04-10T17:09:52;96969.53;;;13.92;49.09
25130;BME280;13308;50.860;13.664;2023-04-10T17:12:17;96971.53;;;13.92;48.78
25130;BME280;13308;50.860;13.664;2023-04-10T17:14:43;96973.56;;;13.59;49.54
25130;BME280;13308;50.860;13.664;2023-04-10T17:17:08;96979.81;;;13.63;49.82
25130;BME280;13308;50.860;13.664;2023-04-10T17:19:33;96967.50;;;13.48;49.69
25130;BME280;13308;50.860;13.664;2023-04-10T17:21:59;96960.50;;;13.44;50.67
25130;BME280;13308;50.860;13.664;2023-04-10T17:24:24;96972.53;;;13.37;50.50
25130;BME280;13308;50.860;13.664;2023-04-10T17:26:49;96956.19;;;13.27;50.59
25130;BME280;13308;50.860;13.664;2023-04-10T17:29:15;96970.00;;;13.11;51.26
25130;BME280;13308;50.860;13.664;2023-04-10T17:31:40;96955.19;;;13.01;51.86
25130;BME280;13308;50.860;13.664;2023-04-10T17:34:05;96956.22;;;12.91;51.95
25130;BME280;13308;50.860;13.664;2023-04-10T17:36:31;96952.13;;;12.60;52.98
25130;BME280;13308;50.860;13.664;2023-04-10T17:38:57;96954.72;;;12.51;52.86
25130;BME280;13308;50.860;13.664;2023-04-10T17:41:22;96946.75;;;12.53;53.27
25130;BME280;13308;50.860;13.664;2023-04-10T17:43:47;96943.00;;;12.44;53.75
25130;BME280;13308;50.860;13.664;2023-04-10T17:46:13;96945.78;;;12.24;54.88
25130;BME280;13308;50.860;13.664;2023-04-10T17:48:43;96932.59;;;12.12;54.59
25130;BME280;13308;50.860;13.664;2023-04-10T17:51:08;96936.28;;;11.86;55.98
25130;BME280;13308;50.860;13.664;2023-04-10T17:53:33;96936.91;;;11.74;55.21
25130;BME280;13308;50.860;13.664;2023-04-10T17:55:59;96930.53;;;11.54;56.41
25130;BME280;13308;50.860;13.664;2023-04-10T17:58:25;96926.78;;;11.41;56.09
25130;BME280;13308;50.860;13.664;2023-04-10T18:00:50;96928.06;;;11.14;58.38